Time;durP1;ratioP1;P1;durP2;ratioP2;P2;SDS_P1;SDS_P2;PMS_P1;PMS_P2;Temp;Humidity;BMP_temperature;BMP_pressure;BME280_temperature;BME280_humidity;BME280_pressure;Samples;Min_cycle;Max_cycle;Signal;HPM_P1;HPM_P2
2022/03/27 00:02:01;;;;;;;3.72;3.05;;;19.80;57.00;;;;;;4994130;28;20061;-12
2022/03/27 00:04:27;;;;;;;2.85;2.65;;;19.80;57.00;;;;;;4995085;28;20058;-14
2022/03/27 00:06:52;;;;;;;2.70;2.50;;;19.80;57.00;;;;;;4995498;28;20129;-15
2022/03/27 00:09:18;;;;;;;2.90;2.67;;;19.80;56.90;;;;;;4991067;28;20142;-14
2022/03/27 00:11:43;;;;;;;2.70;2.50;;;19.80;57.10;;;;;;4992780;28;20045;-13
2022/03/27 00:14:09;;;;;;;2.88;2.60;;;19.80;57.10;;;;;;4990698;28;20058;-13
2022/03/27 00:16:35;;;;;;;2.90;2.70;;;19.80;57.10;;;;;;4991576;28;20500;-13
2022/03/27 00:19:01;;;;;;;3.10;2.33;;;19.80;57.10;;;;;;4994928;28;20418;-13
2022/03/27 00:21:26;;;;;;;2.53;2.33;;;19.80;57.20;;;;;;4994919;28;20054;-13
2022/03/27 00:23:52;;;;;;;2.97;2.70;;;19.80;57.10;;;;;;4994478;28;20049;-12
2022/03/27 00:26:18;;;;;;;2.85;2.65;;;19.80;57.20;;;;;;4994659;28;20097;-13
2022/03/27 00:28:44;;;;;;;2.47;2.28;;;19.80;57.20;;;;;;4993257;28;20050;-12
2022/03/27 00:31:10;;;;;;;2.83;2.63;;;19.80;57.20;;;;;;4992248;28;20803;-13
2022/03/27 00:33:36;;;;;;;2.80;2.60;;;19.70;57.20;;;;;;4990748;28;20046;-13
2022/03/27 00:36:03;;;;;;;3.13;2.92;;;19.70;57.00;;;;;;4995472;28;20153;-13
2022/03/27 00:38:29;;;;;;;3.10;2.70;;;19.80;57.20;;;;;;4991383;28;20078;-13
2022/03/27 00:40:55;;;;;;;2.67;2.58;;;19.80;57.20;;;;;;4993624;28;20057;-13
2022/03/27 00:43:21;;;;;;;2.90;2.60;;;19.70;57.80;;;;;;4995479;28;20078;-12
2022/03/27 00:45:46;;;;;;;3.05;2.78;;;19.70;57.20;;;;;;4995809;28;20496;-12
2022/03/27 00:48:17;;;;;;;2.55;2.40;;;19.70;57.40;;;;;;4995887;28;20404;-12
2022/03/27 00:50:43;;;;;;;3.00;2.80;;;19.70;57.40;;;;;;4993707;28;20085;-13
2022/03/27 00:53:09;;;;;;;2.97;2.78;;;19.70;57.40;;;;;;4994602;28;20507;-12
2022/03/27 00:55:35;;;;;;;2.70;2.50;;;19.70;57.40;;;;;;4994922;28;20069;-13
2022/03/27 00:58:01;;;;;;;2.55;2.45;;;19.60;57.40;;;;;;4995172;28;20050;-13
2022/03/27 01:00:38;;;;;;;2.25;2.15;;;19.60;57.30;;;;;;4995340;28;20614;-12
2022/03/27 01:03:11;;;;;;;3.10;2.80;;;19.70;57.40;;;;;;4994863;28;20454;-13
2022/03/27 01:05:38;;;;;;;2.80;2.60;;;19.60;57.40;;;;;;4995472;28;20129;-13
2022/03/27 01:08:08;;;;;;;2.67;2.47;;;19.60;57.40;;;;;;4990468;28;20046;-13
2022/03/27 01:10:34;;;;;;;2.60;2.40;;;19.60;57.50;;;;;;4995064;28;20097;-14
2022/03/27 01:13:04;;;;;;;2.30;2.20;;;19.60;57.50;;;;;;4995016;28;20054;-12
2022/03/27 01:15:47;;;;;;;2.70;2.60;;;19.60;57.50;;;;;;4990164;28;20102;-12
2022/03/27 01:18:12;;;;;;;2.20;2.10;;;19.60;57.50;;;;;;4994169;28;20088;-12
2022/03/27 01:20:41;;;;;;;2.38;2.28;;;19.60;57.40;;;;;;4995076;28;20046;-12
2022/03/27 01:23:09;;;;;;;2.45;2.35;;;19.60;57.40;;;;;;4995133;28;20108;-13
2022/03/27 01:25:36;;;;;;;2.58;2.38;;;19.60;57.30;;;;;;4994482;28;20546;-13
2022/03/27 01:28:02;;;;;;;2.50;2.40;;;19.60;57.20;;;;;;4995186;28;20038;-12
2022/03/27 01:30:27;;;;;;;2.40;2.30;;;19.60;57.40;;;;;;4995731;28;20140;-13
2022/03/27 01:32:54;;;;;;;2.47;2.38;;;19.60;57.40;;;;;;4993155;28;20050;-13
2022/03/27 01:35:20;;;;;;;2.70;2.50;;;19.60;57.40;;;;;;4993927;28;20189;-12
2022/03/27 01:37:49;;;;;;;2.40;2.30;;;19.50;57.50;;;;;;4987277;28;20078;-13
2022/03/27 01:40:14;;;;;;;2.78;2.58;;;19.60;57.50;;;;;;4990995;28;20069;-13
2022/03/27 01:42:40;;;;;;;2.08;1.90;;;19.60;57.40;;;;;;4995496;28;20053;-13
2022/03/27 01:45:07;;;;;;;2.45;2.30;;;19.50;57.50;;;;;;4993085;28;20692;-13
2022/03/27 01:47:33;;;;;;;2.05;1.95;;;19.50;57.50;;;;;;4994734;28;20050;-12
2022/03/27 01:50:00;;;;;;;2.30;2.15;;;19.50;57.50;;;;;;4993914;28;20133;-13
2022/03/27 01:52:26;;;;;;;2.38;2.25;;;19.50;57.40;;;;;;4994763;28;20050;-12
2022/03/27 01:54:52;;;;;;;2.50;2.40;;;19.50;57.50;;;;;;4992852;28;20526;-13
2022/03/27 01:57:17;;;;;;;2.38;2.20;;;19.50;57.50;;;;;;4993897;28;20142;-13
2022/03/27 01:59:43;;;;;;;2.50;2.30;;;19.50;57.50;;;;;;4994567;28;20101;-13
2022/03/27 02:02:09;;;;;;;2.40;2.30;;;19.50;57.50;;;;;;4985988;28;20055;-12
2022/03/27 02:04:35;;;;;;;2.63;2.45;;;19.50;57.50;;;;;;4988764;28;20046;-12
2022/03/27 02:07:01;;;;;;;2.38;2.25;;;19.50;57.40;;;;;;4993599;28;20181;-14
2022/03/27 02:09:27;;;;;;;2.25;2.15;;;19.50;57.30;;;;;;4993285;28;20047;-12
2022/03/27 02:11:52;;;;;;;2.47;2.28;;;19.50;57.40;;;;;;4992605;28;20057;-13
2022/03/27 02:14:18;;;;;;;2.40;2.30;;;19.50;57.50;;;;;;4998030;28;20042;-12
2022/03/27 02:16:43;;;;;;;2.50;2.40;;;19.50;57.60;;;;;;4999394;28;20050;-12
2022/03/27 02:19:09;;;;;;;2.88;2.50;;;19.50;57.50;;;;;;4998607;28;20056;-13
2022/03/27 02:21:36;;;;;;;2.50;2.40;;;19.40;57.50;;;;;;4989329;28;20058;-13
2022/03/27 02:24:05;;;;;;;2.40;2.30;;;19.40;57.50;;;;;;4997762;28;20042;-12
2022/03/27 02:26:31;;;;;;;2.25;2.15;;;19.50;57.60;;;;;;4998327;28;20112;-12
2022/03/27 02:28:56;;;;;;;2.45;2.25;;;19.40;57.60;;;;;;4996634;28;20080;-11
2022/03/27 02:31:22;;;;;;;2.53;2.38;;;19.40;57.60;;;;;;4997974;28;20058;-13
2022/03/27 02:33:48;;;;;;;2.40;2.30;;;19.40;57.60;;;;;;4997954;28;20064;-12
2022/03/27 02:36:14;;;;;;;2.30;2.20;;;19.40;57.60;;;;;;4998320;28;20120;-12
2022/03/27 02:38:40;;;;;;;2.08;1.98;;;19.40;57.60;;;;;;4991419;28;20086;-12
2022/03/27 02:41:06;;;;;;;2.50;2.30;;;19.40;57.60;;;;;;4997706;28;20129;-12
2022/03/27 02:43:32;;;;;;;2.20;2.10;;;19.40;57.70;;;;;;4992405;28;20038;-12
2022/03/27 02:45:58;;;;;;;2.47;2.38;;;19.40;57.70;;;;;;4997145;28;20049;-12
2022/03/27 02:48:23;;;;;;;2.40;2.30;;;19.40;57.70;;;;;;4997649;28;20049;-12
2022/03/27 02:50:49;;;;;;;2.03;1.92;;;19.40;57.70;;;;;;4998452;28;20055;-12
2022/03/27 02:53:15;;;;;;;2.38;2.28;;;19.40;57.70;;;;;;4996669;28;20570;-13
2022/03/27 02:55:40;;;;;;;2.30;2.10;;;19.40;57.70;;;;;;4997799;28;20503;-13
2022/03/27 02:58:06;;;;;;;2.60;2.40;;;19.40;57.70;;;;;;4996905;28;20466;-12
2022/03/27 03:00:32;;;;;;;2.22;2.10;;;19.40;57.70;;;;;;4996711;28;20100;-11
2022/03/27 03:02:58;;;;;;;2.22;2.13;;;19.40;57.70;;;;;;4998275;28;20133;-12
2022/03/27 03:05:24;;;;;;;2.40;2.20;;;19.30;57.70;;;;;;4996874;28;20050;-12
2022/03/27 03:07:50;;;;;;;2.05;1.95;;;19.30;57.70;;;;;;4987093;28;20120;-11
2022/03/27 03:10:15;;;;;;;2.42;2.30;;;19.30;57.60;;;;;;4997183;28;20458;-13
2022/03/27 03:12:41;;;;;;;2.17;2.08;;;19.30;57.70;;;;;;4996755;28;20120;-12
2022/03/27 03:15:07;;;;;;;2.33;2.22;;;19.30;57.60;;;;;;4993735;28;20069;-12
2022/03/27 03:17:33;;;;;;;2.63;2.53;;;19.30;57.70;;;;;;4995721;28;20137;-11
2022/03/27 03:19:59;;;;;;;2.13;2.03;;;19.40;57.70;;;;;;4982292;28;20066;-12
2022/03/27 03:22:25;;;;;;;2.35;2.15;;;19.30;57.80;;;;;;4997281;28;20046;-13
2022/03/27 03:24:52;;;;;;;2.33;2.22;;;19.30;57.70;;;;;;4995137;28;20062;-12
2022/03/27 03:27:17;;;;;;;1.90;1.80;;;19.30;57.70;;;;;;4993935;28;20053;-12
2022/03/27 03:29:43;;;;;;;1.75;1.65;;;19.30;57.60;;;;;;4995335;28;20512;-12
2022/03/27 03:32:08;;;;;;;2.40;2.30;;;19.30;57.60;;;;;;4995837;28;20092;-12
2022/03/27 03:34:34;;;;;;;2.13;2.03;;;19.30;57.60;;;;;;4996938;28;20064;-12
2022/03/27 03:37:00;;;;;;;2.70;2.60;;;19.30;57.70;;;;;;4997810;28;20125;-12
2022/03/27 03:39:25;;;;;;;2.08;1.98;;;19.30;57.60;;;;;;4995942;28;20109;-12
2022/03/27 03:41:51;;;;;;;2.25;2.15;;;19.30;57.60;;;;;;4998006;28;20049;-12
2022/03/27 03:44:17;;;;;;;2.17;2.08;;;19.30;57.60;;;;;;4996930;28;20073;-12
2022/03/27 03:46:43;;;;;;;2.22;2.13;;;19.30;57.60;;;;;;4985844;28;20051;-12
2022/03/27 03:49:09;;;;;;;2.22;2.13;;;19.30;57.60;;;;;;4989844;28;20061;-13
2022/03/27 03:51:35;;;;;;;2.63;2.45;;;19.30;57.60;;;;;;4997243;28;20042;-12
2022/03/27 03:54:06;;;;;;;2.45;2.35;;;19.30;57.50;;;;;;4996705;28;20117;-12
2022/03/27 03:56:32;;;;;;;2.25;2.15;;;19.30;57.50;;;;;;4994184;28;20042;-11
2022/03/27 03:58:58;;;;;;;2.38;2.20;;;19.30;57.40;;;;;;4997094;28;20048;-12
2022/03/27 04:01:23;;;;;;;1.92;1.83;;;19.30;57.40;;;;;;4997097;28;20034;-13
2022/03/27 04:03:49;;;;;;;2.40;2.30;;;19.30;57.60;;;;;;4993297;28;20050;-11
2022/03/27 04:06:15;;;;;;;2.00;1.90;;;19.20;57.50;;;;;;4993779;28;20062;-13
2022/03/27 04:08:40;;;;;;;2.25;2.08;;;19.30;57.50;;;;;;4997002;28;20073;-11
2022/03/27 04:11:06;;;;;;;1.77;1.67;;;19.30;57.40;;;;;;4995314;28;20528;-12
2022/03/27 04:13:32;;;;;;;2.35;2.10;;;19.30;57.40;;;;;;4995509;28;20510;-12
2022/03/27 04:15:57;;;;;;;1.80;1.70;;;19.20;57.40;;;;;;4997077;28;20133;-12
2022/03/27 04:18:24;;;;;;;2.10;2.00;;;19.30;57.30;;;;;;4995641;28;20491;-13
2022/03/27 04:20:49;;;;;;;2.47;2.38;;;19.30;57.30;;;;;;4994778;28;20122;-12
2022/03/27 04:23:15;;;;;;;2.10;2.00;;;19.20;57.40;;;;;;4995858;28;20140;-11
2022/03/27 04:25:40;;;;;;;2.10;2.00;;;19.30;57.40;;;;;;4995890;28;20516;-12
2022/03/27 04:28:10;;;;;;;2.22;2.13;;;19.20;57.40;;;;;;4996681;28;20117;-12
2022/03/27 04:30:37;;;;;;;2.38;2.28;;;19.20;57.50;;;;;;4995596;28;20594;-13
2022/03/27 04:33:03;;;;;;;2.20;2.10;;;19.20;57.50;;;;;;4996791;28;20038;-11
2022/03/27 04:35:28;;;;;;;2.17;2.08;;;19.20;57.50;;;;;;4995193;28;20046;-12
2022/03/27 04:37:54;;;;;;;2.38;2.28;;;19.20;57.50;;;;;;4995272;28;20210;-12
2022/03/27 04:40:19;;;;;;;2.45;2.35;;;19.20;57.40;;;;;;4993022;28;20046;-12
2022/03/27 04:42:45;;;;;;;2.40;2.30;;;19.20;57.40;;;;;;4994006;28;20050;-13
2022/03/27 04:45:11;;;;;;;3.00;2.80;;;19.20;57.40;;;;;;4976746;28;20118;-14
2022/03/27 04:47:38;;;;;;;2.97;2.85;;;19.20;57.40;;;;;;4996052;28;20046;-13
2022/03/27 04:50:04;;;;;;;2.55;2.45;;;19.20;57.40;;;;;;4995785;28;20050;-12
2022/03/27 04:52:30;;;;;;;3.17;3.00;;;19.20;57.40;;;;;;4993810;28;20065;-13
2022/03/27 04:54:56;;;;;;;3.45;3.35;;;19.20;57.40;;;;;;4993242;28;20046;-12
2022/03/27 04:57:21;;;;;;;3.20;3.10;;;19.20;57.50;;;;;;4992880;28;20057;-13
2022/03/27 04:59:48;;;;;;;3.75;3.55;;;19.20;57.50;;;;;;4986285;28;20042;-13
2022/03/27 05:02:14;;;;;;;2.90;2.80;;;19.20;57.50;;;;;;4985334;28;20160;-13
2022/03/27 05:04:41;;;;;;;3.25;3.05;;;19.20;57.50;;;;;;4987452;28;20066;-12
2022/03/27 05:07:07;;;;;;;3.38;3.28;;;19.20;57.50;;;;;;4996357;28;20062;-13
2022/03/27 05:09:32;;;;;;;3.60;3.40;;;19.20;57.50;;;;;;4993078;28;20046;-14
2022/03/27 05:11:58;;;;;;;3.38;3.28;;;19.20;57.40;;;;;;4993699;28;20518;-13
2022/03/27 05:14:23;;;;;;;3.22;3.13;;;19.20;57.50;;;;;;4994420;28;20046;-13
2022/03/27 05:16:49;;;;;;;3.55;3.38;;;19.20;57.50;;;;;;4996273;28;20049;-16
2022/03/27 05:19:15;;;;;;;3.20;3.10;;;19.20;57.50;;;;;;4993920;28;20490;-15
2022/03/27 05:21:40;;;;;;;3.15;3.00;;;19.20;57.50;;;;;;4988138;28;20530;-14
2022/03/27 05:24:08;;;;;;;3.90;3.70;;;19.20;57.40;;;;;;4986871;28;20047;-13
2022/03/27 05:26:35;;;;;;;3.90;3.70;;;19.20;57.40;;;;;;4984776;28;20483;-13
2022/03/27 05:29:02;;;;;;;3.65;3.45;;;19.20;57.40;;;;;;4985721;28;20053;-13
2022/03/27 05:31:28;;;;;;;4.18;3.97;;;19.20;57.40;;;;;;4984925;28;20042;-12
2022/03/27 05:33:53;;;;;;;4.55;4.10;;;19.20;57.50;;;;;;4986100;28;20039;-14
2022/03/27 05:36:19;;;;;;;4.43;4.13;;;19.20;57.50;;;;;;4983550;28;20042;-13
2022/03/27 05:38:44;;;;;;;3.70;3.50;;;19.20;57.50;;;;;;4989374;28;20408;-13
2022/03/27 05:41:10;;;;;;;3.70;3.50;;;19.10;57.60;;;;;;4982982;28;20050;-12
2022/03/27 05:43:36;;;;;;;3.78;3.60;;;19.10;57.60;;;;;;4984409;28;20062;-13
2022/03/27 05:46:02;;;;;;;4.07;3.88;;;19.10;57.40;;;;;;4985447;28;20045;-12
2022/03/27 05:48:27;;;;;;;3.72;3.53;;;19.10;57.40;;;;;;4985705;28;20065;-13
2022/03/27 05:50:53;;;;;;;3.20;3.00;;;19.10;57.50;;;;;;4991545;28;20514;-13
2022/03/27 05:53:19;;;;;;;3.13;3.03;;;19.10;57.50;;;;;;4989840;28;20043;-13
2022/03/27 05:55:44;;;;;;;3.47;3.28;;;19.10;57.50;;;;;;4994423;28;20065;-13
2022/03/27 05:58:10;;;;;;;3.35;3.15;;;19.10;57.60;;;;;;4994346;28;20030;-13
2022/03/27 06:00:35;;;;;;;3.03;2.88;;;19.10;57.60;;;;;;4992957;28;20050;-14
2022/03/27 06:03:01;;;;;;;3.40;3.20;;;19.10;57.50;;;;;;4995601;28;20042;-13
2022/03/27 06:05:27;;;;;;;3.28;2.97;;;19.10;57.60;;;;;;4986802;28;20090;-13
2022/03/27 06:07:56;;;;;;;3.13;3.03;;;19.10;57.60;;;;;;4984346;28;20046;-14
2022/03/27 06:10:24;;;;;;;3.00;2.80;;;19.10;57.70;;;;;;4984843;28;20046;-12
2022/03/27 06:12:50;;;;;;;3.05;2.83;;;19.10;57.70;;;;;;4987262;28;20048;-14
2022/03/27 06:15:16;;;;;;;2.95;2.85;;;19.00;57.70;;;;;;4985006;28;20058;-13
2022/03/27 06:17:44;;;;;;;3.30;3.10;;;19.00;57.70;;;;;;4985268;28;20522;-12
2022/03/27 06:20:11;;;;;;;3.03;2.92;;;19.00;57.60;;;;;;4987235;28;20051;-13
2022/03/27 06:22:37;;;;;;;3.25;3.13;;;19.10;57.60;;;;;;4987190;28;20134;-13
2022/03/27 06:25:03;;;;;;;3.28;3.08;;;19.10;57.60;;;;;;4985329;28;20063;-14
2022/03/27 06:27:29;;;;;;;2.72;2.63;;;19.10;57.50;;;;;;4982524;28;20050;-14
2022/03/27 06:29:54;;;;;;;2.90;2.80;;;19.00;57.60;;;;;;4987951;28;20054;-13
2022/03/27 06:32:20;;;;;;;3.33;3.15;;;19.10;57.60;;;;;;4986270;28;20054;-13
2022/03/27 06:34:45;;;;;;;2.80;2.70;;;19.00;57.60;;;;;;4986189;28;20062;-13
2022/03/27 06:37:11;;;;;;;3.20;3.10;;;19.00;57.70;;;;;;4991453;28;20077;-13
2022/03/27 06:39:37;;;;;;;2.78;2.67;;;19.00;57.70;;;;;;4991261;28;20045;-14
2022/03/27 06:42:02;;;;;;;3.13;2.92;;;19.00;57.60;;;;;;4994187;28;20058;-13
2022/03/27 06:44:28;;;;;;;3.03;2.90;;;19.00;57.60;;;;;;4989768;28;20046;-13
2022/03/27 06:46:54;;;;;;;3.00;2.80;;;19.00;57.60;;;;;;4988112;28;20399;-13
2022/03/27 06:49:20;;;;;;;2.67;2.58;;;19.00;57.60;;;;;;4993399;28;20111;-13
2022/03/27 06:51:45;;;;;;;2.60;2.50;;;19.00;57.60;;;;;;4993491;28;20046;-14
2022/03/27 06:54:11;;;;;;;2.33;2.22;;;19.00;57.60;;;;;;4991690;28;20058;-13
2022/03/27 06:56:41;;;;;;;2.40;2.30;;;19.00;57.70;;;;;;4986433;28;20050;-13
2022/03/27 06:59:06;;;;;;;3.38;2.75;;;18.90;57.70;;;;;;4994572;28;20308;-13
2022/03/27 07:04:16;;;;;;;2.65;2.55;;;19.00;57.60;;;;;;4646609;28;10000301;-14
2022/03/27 07:06:43;;;;;;;2.80;2.70;;;19.00;57.50;;;;;;5001704;28;20419;-14
2022/03/27 07:09:09;;;;;;;3.13;2.80;;;19.00;57.60;;;;;;4995235;28;20052;-14
2022/03/27 07:11:36;;;;;;;3.55;2.92;;;19.00;57.70;;;;;;4993488;28;20034;-12
2022/03/27 07:14:02;;;;;;;3.13;2.92;;;18.90;57.70;;;;;;4998711;28;20574;-12
2022/03/27 07:16:30;;;;;;;2.75;2.55;;;18.90;57.50;;;;;;4994009;28;20603;-13
2022/03/27 07:18:55;;;;;;;2.78;2.58;;;19.00;57.50;;;;;;4998312;28;20044;-13
2022/03/27 07:21:21;;;;;;;3.28;2.72;;;19.00;57.50;;;;;;4999165;28;20109;-12
2022/03/27 07:23:47;;;;;;;2.60;2.50;;;18.90;57.50;;;;;;4994605;28;20050;-13
2022/03/27 07:26:13;;;;;;;2.72;2.35;;;19.00;57.60;;;;;;4989649;28;20062;-13
2022/03/27 07:28:38;;;;;;;2.97;2.78;;;19.00;57.40;;;;;;4984774;28;20050;-12
2022/03/27 07:31:04;;;;;;;3.15;2.42;;;19.00;57.30;;;;;;4982463;28;20535;-13
2022/03/27 07:33:30;;;;;;;2.60;2.20;;;19.00;57.30;;;;;;4989399;28;20077;-14
2022/03/27 07:35:56;;;;;;;2.58;2.47;;;19.00;57.20;;;;;;4991959;28;20542;-13
2022/03/27 07:38:21;;;;;;;2.80;2.60;;;19.00;57.20;;;;;;4990994;28;20062;-14
2022/03/27 07:40:47;;;;;;;2.75;2.55;;;19.00;57.30;;;;;;4994617;28;20043;-13
2022/03/27 07:43:13;;;;;;;4.22;2.80;;;19.00;57.40;;;;;;4995460;28;20050;-13
2022/03/27 07:45:39;;;;;;;2.90;2.50;;;19.00;57.30;;;;;;4993054;28;20038;-13
2022/03/27 07:48:05;;;;;;;2.58;2.47;;;19.00;57.40;;;;;;4992006;28;20136;-14
2022/03/27 07:50:31;;;;;;;3.25;2.75;;;19.00;57.40;;;;;;4983693;28;20043;-13
2022/03/27 07:52:57;;;;;;;2.80;2.70;;;19.00;57.50;;;;;;4987093;28;20105;-12
2022/03/27 07:55:24;;;;;;;3.38;3.08;;;19.00;57.40;;;;;;4990783;28;20062;-13
2022/03/27 07:57:49;;;;;;;2.92;2.72;;;19.00;57.30;;;;;;4983300;28;20050;-14
2022/03/27 08:00:16;;;;;;;2.67;2.50;;;19.10;57.20;;;;;;4991718;28;20065;-13
2022/03/27 08:02:42;;;;;;;2.20;2.10;;;19.10;57.20;;;;;;4992559;28;20054;-12
2022/03/27 08:05:08;;;;;;;2.88;2.67;;;19.00;57.20;;;;;;4984878;28;20039;-14
2022/03/27 08:07:34;;;;;;;2.30;2.20;;;19.10;57.20;;;;;;4989820;28;20129;-14
2022/03/27 08:10:00;;;;;;;2.47;2.30;;;19.10;57.10;;;;;;4989795;28;20583;-13
2022/03/27 08:12:26;;;;;;;2.65;2.55;;;19.20;57.00;;;;;;4989682;28;20057;-14
2022/03/27 08:14:52;;;;;;;2.47;2.28;;;19.10;57.20;;;;;;4973887;28;20054;-13
2022/03/27 08:17:17;;;;;;;2.42;2.22;;;19.00;57.90;;;;;;4988698;28;20057;-13
2022/03/27 08:19:44;;;;;;;2.70;2.60;;;19.00;57.30;;;;;;4991958;28;20038;-13
2022/03/27 08:22:10;;;;;;;2.47;2.10;;;19.00;57.40;;;;;;4987997;28;20408;-12
2022/03/27 08:24:36;;;;;;;2.30;2.10;;;19.10;57.90;;;;;;4991685;28;20124;-13
2022/03/27 08:27:04;;;;;;;2.60;2.40;;;19.10;58.90;;;;;;4991526;28;20458;-12
2022/03/27 08:29:31;;;;;;;2.60;2.50;;;19.10;59.10;;;;;;4990677;28;20124;-12
2022/03/27 08:32:00;;;;;;;4.10;3.70;;;19.20;59.10;;;;;;4988958;28;20149;-13
2022/03/27 08:34:28;;;;;;;5.00;4.53;;;19.10;59.00;;;;;;4989610;28;20038;-13
2022/03/27 08:36:53;;;;;;;4.97;4.55;;;19.20;58.50;;;;;;4986590;28;20050;-13
2022/03/27 08:39:19;;;;;;;5.07;4.68;;;19.20;58.20;;;;;;4992268;28;20061;-12
2022/03/27 08:41:49;;;;;;;6.68;4.10;;;19.20;58.00;;;;;;4987131;28;20047;-12
2022/03/27 08:44:18;;;;;;;3.30;3.10;;;19.20;58.30;;;;;;4983344;28;20050;-11
2022/03/27 08:46:44;;;;;;;3.00;2.80;;;19.20;58.30;;;;;;4984990;28;20038;-13
2022/03/27 08:49:15;;;;;;;16.45;3.67;;;19.20;58.30;;;;;;4991034;28;20511;-12
2022/03/27 08:51:48;;;;;;;5.47;3.03;;;19.50;58.00;;;;;;4993309;28;20085;-12
2022/03/27 08:54:16;;;;;;;4.03;3.72;;;19.60;57.90;;;;;;4993271;28;20043;-12
2022/03/27 08:56:41;;;;;;;3.30;3.10;;;19.50;57.80;;;;;;4994140;28;20046;-12
2022/03/27 08:59:09;;;;;;;3.28;2.92;;;19.40;57.80;;;;;;4988992;28;20044;-12
2022/03/27 09:01:34;;;;;;;3.00;2.80;;;19.40;57.70;;;;;;4982603;28;20061;-12
2022/03/27 09:04:00;;;;;;;4.05;2.50;;;19.50;58.60;;;;;;4993037;28;20050;-12
2022/03/27 09:06:26;;;;;;;3.05;2.80;;;19.50;58.30;;;;;;4995442;28;20086;-12
2022/03/27 09:08:53;;;;;;;2.58;2.38;;;19.50;58.40;;;;;;4993424;28;20050;-13
2022/03/27 09:11:19;;;;;;;2.92;2.25;;;19.50;58.50;;;;;;4988186;28;20128;-11
2022/03/27 09:13:49;;;;;;;4.35;2.65;;;19.50;58.10;;;;;;4989127;28;20038;-12
2022/03/27 09:16:15;;;;;;;2.75;2.58;;;19.50;58.60;;;;;;4998775;28;20522;-12
2022/03/27 09:18:55;;;;;;;2.13;2.00;;;19.50;59.00;;;;;;4993443;28;20468;-13
2022/03/27 09:21:22;;;;;;;2.30;2.20;;;19.60;58.40;;;;;;4994371;28;20054;-12
2022/03/27 09:23:56;;;;;;;2.97;2.55;;;19.60;58.90;;;;;;4994829;28;20042;-12
2022/03/27 09:26:21;;;;;;;2.70;2.60;;;19.60;58.90;;;;;;4991961;28;20089;-12
2022/03/27 09:29:08;;;;;;;2.60;2.40;;;19.60;58.50;;;;;;4990566;28;20042;-12
2022/03/27 09:31:34;;;;;;;2.63;2.42;;;19.60;58.30;;;;;;4984274;28;20047;-12
2022/03/27 09:34:01;;;;;;;2.60;2.22;;;19.60;58.40;;;;;;4992343;28;20053;-13
2022/03/27 09:36:35;;;;;;;2.65;2.45;;;19.60;58.40;;;;;;4991304;28;20499;-12
2022/03/27 09:39:19;;;;;;;2.50;2.30;;;19.60;58.50;;;;;;4994881;28;21079;-13
2022/03/27 09:41:50;;;;;;;2.83;2.40;;;19.60;58.40;;;;;;4990093;28;20177;-12
2022/03/27 09:44:28;;;;;;;2.30;2.13;;;19.60;58.40;;;;;;4990450;28;20054;-12
2022/03/27 09:46:57;;;;;;;3.53;2.60;;;19.70;58.60;;;;;;4986928;28;20083;-12
2022/03/27 09:49:44;;;;;;;4.57;2.63;;;19.70;58.70;;;;;;4988735;28;20065;-12
2022/03/27 09:52:12;;;;;;;2.17;2.05;;;19.70;58.70;;;;;;4989788;28;20077;-12
2022/03/27 09:54:49;;;;;;;2.42;2.33;;;19.70;58.60;;;;;;4992839;28;20057;-11
2022/03/27 09:57:18;;;;;;;3.15;2.30;;;19.80;59.00;;;;;;4986016;28;20499;-13
2022/03/27 09:59:45;;;;;;;2.40;2.20;;;19.90;58.70;;;;;;4986129;28;20126;-13
2022/03/27 10:02:27;;;;;;;2.42;1.98;;;19.80;58.70;;;;;;4992354;28;20034;-12
2022/03/27 10:04:57;;;;;;;2.75;2.10;;;19.80;58.80;;;;;;4985314;28;20062;-12
2022/03/27 10:07:25;;;;;;;2.97;2.10;;;19.90;58.70;;;;;;4987613;28;20123;-12
2022/03/27 10:09:52;;;;;;;2.38;2.05;;;19.90;58.60;;;;;;4986263;28;20058;-12
2022/03/27 10:12:18;;;;;;;2.85;2.33;;;19.90;59.20;;;;;;4984315;28;20562;-12
2022/03/27 10:14:44;;;;;;;3.72;2.20;;;19.90;58.80;;;;;;4987177;28;20655;-12
2022/03/27 10:17:10;;;;;;;4.03;2.00;;;20.00;59.00;;;;;;4989728;28;20061;-12
2022/03/27 10:19:38;;;;;;;3.80;2.40;;;20.00;58.60;;;;;;4990981;28;20042;-12
2022/03/27 10:22:05;;;;;;;3.17;2.47;;;20.00;59.10;;;;;;4991447;28;20061;-12
2022/03/27 10:24:30;;;;;;;1.90;1.80;;;20.00;59.00;;;;;;4635832;28;10000432;-13
2022/03/27 10:26:59;;;;;;;2.83;2.60;;;20.10;58.90;;;;;;4969062;28;20511;-12
2022/03/27 10:29:25;;;;;;;2.55;2.20;;;20.20;59.60;;;;;;4982858;28;20372;-12
2022/03/27 10:31:51;;;;;;;4.90;2.55;;;20.20;58.80;;;;;;4984729;28;20039;-12
2022/03/27 10:34:17;;;;;;;2.75;2.55;;;20.20;58.70;;;;;;4987522;28;20057;-13
2022/03/27 10:36:49;;;;;;;2.53;2.33;;;20.10;59.10;;;;;;4991654;28;20038;-12
2022/03/27 10:39:31;;;;;;;2.78;2.50;;;20.20;59.40;;;;;;4996452;28;20042;-12
2022/03/27 10:42:09;;;;;;;2.90;2.70;;;20.30;59.20;;;;;;4994506;28;20057;-12
2022/03/27 10:45:04;;;;;;;3.67;2.25;;;20.30;59.10;;;;;;4993879;28;20129;-13
2022/03/27 10:47:30;;;;;;;3.35;3.15;;;20.30;59.00;;;;;;4988457;28;20054;-14
2022/03/27 10:50:02;;;;;;;4.90;2.20;;;20.30;59.10;;;;;;4993877;28;20042;-13
2022/03/27 10:52:28;;;;;;;2.42;2.33;;;20.40;59.80;;;;;;4993642;28;20046;-13
2022/03/27 10:55:13;;;;;;;3.83;2.78;;;20.50;59.40;;;;;;4993422;28;20058;-13
2022/03/27 10:57:46;;;;;;;2.70;2.50;;;20.50;59.70;;;;;;4993569;28;20052;-13
2022/03/27 11:00:12;;;;;;;2.75;2.55;;;20.40;59.70;;;;;;4992806;28;20132;-12
2022/03/27 11:02:45;;;;;;;2.25;2.15;;;20.50;59.80;;;;;;4991151;28;20047;-13
2022/03/27 11:05:32;;;;;;;2.50;2.30;;;20.40;60.00;;;;;;4991773;28;20050;-13
2022/03/27 11:08:19;;;;;;;3.15;2.30;;;20.50;59.70;;;;;;4985162;28;20053;-12
2022/03/27 11:10:54;;;;;;;2.50;2.40;;;20.50;60.00;;;;;;4991038;28;20045;-13
2022/03/27 11:13:29;;;;;;;6.20;2.47;;;20.60;61.10;;;;;;4993744;28;20050;-12
2022/03/27 11:16:07;;;;;;;3.05;2.75;;;20.50;60.80;;;;;;4995090;28;20042;-13
2022/03/27 11:18:49;;;;;;;3.45;3.15;;;20.50;60.50;;;;;;4989557;28;20042;-13
2022/03/27 11:21:38;;;;;;;9.93;3.25;;;20.60;59.70;;;;;;4983217;28;20474;-13
2022/03/27 11:24:03;;;;;;;4.00;3.70;;;20.50;59.30;;;;;;4996000;28;20050;-12
2022/03/27 11:26:32;;;;;;;5.00;4.35;;;20.50;59.20;;;;;;4989459;28;20125;-13
2022/03/27 11:29:27;;;;;;;6.55;4.32;;;20.50;59.40;;;;;;4995308;28;20069;-13
2022/03/27 11:32:09;;;;;;;4.63;4.32;;;20.50;59.10;;;;;;4992893;28;20042;-12
2022/03/27 11:34:36;;;;;;;5.65;5.15;;;20.50;58.90;;;;;;4990991;28;20046;-12
2022/03/27 11:37:22;;;;;;;5.88;5.18;;;20.50;58.30;;;;;;4992932;28;20046;-13
2022/03/27 11:39:47;;;;;;;6.00;5.60;;;20.60;58.20;;;;;;5002635;28;20054;-12
2022/03/27 11:42:22;;;;;;;7.95;5.85;;;20.50;57.70;;;;;;4996011;28;20050;-13
2022/03/27 11:47:42;;;;;;;;;;;20.60;57.30;;;;;;4993423;28;20052;-12
2022/03/27 11:50:08;;;;;;;6.25;5.65;;;20.60;57.00;;;;;;4997363;28;19944;-12
2022/03/27 11:52:34;;;;;;;6.80;6.20;;;20.60;56.90;;;;;;4993163;28;20197;-13
2022/03/27 11:55:10;;;;;;;6.95;6.35;;;20.60;56.60;;;;;;4993229;28;20054;-13
2022/03/27 11:57:47;;;;;;;7.25;6.40;;;20.70;56.30;;;;;;4993226;28;20050;-12
2022/03/27 12:00:14;;;;;;;7.18;6.55;;;20.70;56.20;;;;;;4990705;28;20112;-12
2022/03/27 12:02:45;;;;;;;7.78;6.95;;;20.70;56.10;;;;;;4993483;28;20057;-12
2022/03/27 12:05:13;;;;;;;7.57;6.78;;;20.70;55.90;;;;;;4992048;28;20513;-12
2022/03/27 12:07:49;;;;;;;7.43;6.72;;;20.70;56.00;;;;;;4993760;28;20133;-14
2022/03/27 12:10:14;;;;;;;8.00;6.72;;;20.80;55.90;;;;;;4993951;28;20050;-13
2022/03/27 12:12:58;;;;;;;8.73;7.82;;;20.70;54.40;;;;;;4996752;28;20053;-12
2022/03/27 12:15:35;;;;;;;8.73;7.85;;;20.80;54.30;;;;;;4989491;28;20092;-13
2022/03/27 12:18:02;;;;;;;11.32;9.30;;;20.80;52.20;;;;;;5008806;28;20346;-12
2022/03/27 12:20:27;;;;;;;12.65;10.80;;;20.80;52.00;;;;;;4999246;28;20062;-13
2022/03/27 12:22:53;;;;;;;14.00;11.35;;;20.80;51.60;;;;;;4991635;28;21246;-13
2022/03/27 12:25:19;;;;;;;18.38;11.90;;;20.90;52.00;;;;;;4982425;28;20147;-12
2022/03/27 12:30:34;;;;;;;11.75;10.18;;;20.80;52.30;;;;;;4998602;28;20057;-12
2022/03/27 12:33:01;;;;;;;12.40;10.38;;;20.80;50.40;;;;;;4992396;28;20045;-12
2022/03/27 12:35:27;;;;;;;14.52;11.35;;;20.80;51.80;;;;;;4988093;28;20120;-12
2022/03/27 12:37:53;;;;;;;14.73;10.43;;;20.90;51.60;;;;;;4985595;28;20062;-12
2022/03/27 12:40:19;;;;;;;14.68;10.40;;;20.80;51.50;;;;;;4987942;28;20523;-13
2022/03/27 12:42:46;;;;;;;13.27;10.98;;;20.90;51.30;;;;;;4985505;28;20054;-13
2022/03/27 12:45:27;;;;;;;20.92;10.55;;;20.90;51.80;;;;;;4989584;28;20050;-14
2022/03/27 12:47:58;;;;;;;12.20;9.10;;;20.90;52.00;;;;;;4984533;28;20077;-13
2022/03/27 12:50:39;;;;;;;11.98;9.95;;;20.80;52.30;;;;;;4987853;28;20050;-13
2022/03/27 12:53:10;;;;;;;10.57;8.90;;;20.90;52.20;;;;;;4989872;28;20515;-13
2022/03/27 12:55:48;;;;;;;10.73;9.60;;;20.80;52.50;;;;;;4992239;28;20045;-13
2022/03/27 12:58:16;;;;;;;11.18;9.48;;;20.90;52.40;;;;;;4988698;28;20116;-13